Time;durP1;ratioP1;P1;durP2;ratioP2;P2;SDS_P1;SDS_P2;PMS_P1;PMS_P2;Temp;Humidity;BMP_temperature;BMP_pressure;BME280_temperature;BME280_humidity;BME280_pressure;Samples;Min_cycle;Max_cycle;Signal;HPM_P1;HPM_P2
2022/06/01 01:47:00;;;;;;;2.42;2.30;;;14.30;99.90;;;;;;4799785;29;20208;-86
2022/06/01 01:54:09;;;;;;;2.58;2.28;;;14.30;99.90;;;;;;4880201;29;20287;-84
2022/06/01 03:04:32;;;;;;;2.70;2.50;;;14.20;99.90;;;;;;4804445;29;20210;-83
2022/06/01 03:07:02;;;;;;;2.85;2.20;;;14.10;99.90;;;;;;4804656;29;20211;-82
2022/06/01 03:09:34;;;;;;;2.60;2.42;;;14.10;99.90;;;;;;4844888;29;20232;-83
2022/06/01 03:12:04;;;;;;;2.28;2.17;;;14.20;99.90;;;;;;4860594;29;20244;-83
2022/06/01 03:14:33;;;;;;;2.17;2.08;;;14.20;99.90;;;;;;4861027;29;20224;-83
2022/06/01 03:17:02;;;;;;;2.65;2.45;;;14.20;99.90;;;;;;4861079;29;20235;-83
2022/06/01 03:19:32;;;;;;;2.58;2.30;;;14.20;99.90;;;;;;4861201;29;20243;-83
2022/06/01 03:22:01;;;;;;;2.13;2.03;;;14.10;99.90;;;;;;4860838;29;20223;-83
2022/06/01 03:24:30;;;;;;;3.15;2.85;;;14.10;99.90;;;;;;4861076;29;20205;-83
2022/06/01 03:26:59;;;;;;;2.38;2.25;;;14.10;99.90;;;;;;4861083;29;20212;-83
2022/06/01 03:29:27;;;;;;;2.17;2.08;;;14.00;99.90;;;;;;4860666;29;20256;-83
2022/06/01 03:31:56;;;;;;;2.30;2.15;;;14.00;99.90;;;;;;4861157;29;20233;-83
2022/06/01 03:34:26;;;;;;;2.30;2.13;;;14.00;99.90;;;;;;4861047;29;20229;-83
2022/06/01 03:36:56;;;;;;;3.05;2.80;;;14.00;99.90;;;;;;4860416;29;20204;-83
2022/06/01 03:39:25;;;;;;;4.30;2.63;;;14.00;99.90;;;;;;4860593;29;20305;-83
2022/06/01 03:41:54;;;;;;;2.67;2.33;;;14.00;99.90;;;;;;4860827;29;20209;-83
2022/06/01 03:47:12;;;;;;;2.78;2.58;;;14.00;99.90;;;;;;4844879;29;20212;-84
2022/06/01 03:49:43;;;;;;;2.58;2.25;;;14.00;99.90;;;;;;4860610;29;20270;-83
2022/06/01 03:52:14;;;;;;;4.32;2.50;;;14.00;99.90;;;;;;4860702;29;20212;-83
2022/06/01 03:54:42;;;;;;;1.90;1.80;;;14.00;99.90;;;;;;4860432;29;20232;-84
2022/06/01 03:57:13;;;;;;;2.35;2.22;;;14.00;99.90;;;;;;4860953;29;20269;-83
2022/06/01 03:59:42;;;;;;;2.88;2.67;;;14.00;99.90;;;;;;4860800;29;20224;-83
2022/06/01 04:02:11;;;;;;;2.25;2.10;;;14.10;99.90;;;;;;4860458;29;20212;-83
2022/06/01 04:04:40;;;;;;;2.75;2.55;;;14.10;99.90;;;;;;4860854;29;20212;-83
2022/06/01 04:07:09;;;;;;;2.20;2.08;;;14.10;99.90;;;;;;4860669;29;20220;-83
2022/06/01 04:09:40;;;;;;;2.00;1.90;;;14.10;99.90;;;;;;4860689;29;20233;-84
2022/06/01 04:12:09;;;;;;;2.63;2.42;;;14.10;99.90;;;;;;4860340;29;20217;-83
2022/06/01 04:14:37;;;;;;;2.10;1.88;;;14.10;99.90;;;;;;4860664;29;20236;-83
2022/06/01 04:17:06;;;;;;;2.22;2.10;;;14.20;99.90;;;;;;4863874;29;20212;-83
2022/06/01 04:19:34;;;;;;;3.88;2.30;;;14.20;99.90;;;;;;4863588;29;20229;-83
2022/06/01 04:22:03;;;;;;;2.00;1.70;;;14.20;99.90;;;;;;4863745;29;20251;-84
2022/06/01 04:24:35;;;;;;;1.85;1.75;;;14.30;99.90;;;;;;4863915;29;20212;-83
2022/06/01 04:27:05;;;;;;;2.00;1.90;;;14.30;99.90;;;;;;4863843;29;20220;-84
2022/06/01 04:29:36;;;;;;;2.03;1.92;;;14.30;99.90;;;;;;4863576;29;20224;-83
2022/06/01 04:32:09;;;;;;;2.40;2.03;;;14.30;99.90;;;;;;4863407;29;20212;-83
2022/06/01 04:34:37;;;;;;;3.17;1.98;;;14.30;99.90;;;;;;4863880;29;20236;-83
2022/06/01 04:37:06;;;;;;;1.95;1.85;;;14.40;99.90;;;;;;4863539;29;20216;-83
2022/06/01 04:39:37;;;;;;;4.53;2.40;;;14.50;99.90;;;;;;4863115;29;20233;-83
2022/06/01 04:42:08;;;;;;;1.67;1.58;;;14.60;99.90;;;;;;4863073;29;20213;-83
2022/06/01 04:44:38;;;;;;;1.92;1.83;;;14.60;99.90;;;;;;4863691;29;20209;-83
2022/06/01 04:47:06;;;;;;;1.35;1.27;;;14.70;99.90;;;;;;4863519;29;20243;-86
2022/06/01 04:49:34;;;;;;;1.80;1.58;;;14.70;99.90;;;;;;4863604;29;20255;-86
2022/06/01 04:52:03;;;;;;;1.55;1.45;;;14.80;99.90;;;;;;4863844;29;20416;-86
2022/06/01 04:54:31;;;;;;;1.40;1.30;;;14.80;99.90;;;;;;4863835;29;20217;-85
2022/06/01 04:56:59;;;;;;;1.60;1.48;;;15.00;99.90;;;;;;4863229;29;20308;-86
2022/06/01 04:59:29;;;;;;;1.50;1.40;;;15.10;99.90;;;;;;4850943;29;20289;-86
2022/06/01 05:01:58;;;;;;;1.25;1.25;;;15.20;99.90;;;;;;4844581;29;20254;-86
2022/06/01 05:04:59;;;;;;;1.10;1.10;;;15.30;99.90;;;;;;4861202;29;20205;-92
2022/06/01 05:07:28;;;;;;;1.65;1.30;;;15.50;99.90;;;;;;4846822;29;20317;-88
2022/06/01 05:10:09;;;;;;;2.15;1.45;;;15.50;99.90;;;;;;4848955;29;20308;-81
2022/06/01 05:12:37;;;;;;;1.00;1.00;;;15.60;99.90;;;;;;4844686;29;20209;-80
2022/06/01 05:15:10;;;;;;;1.45;1.35;;;15.70;99.90;;;;;;4844353;29;20227;-84
2022/06/01 05:17:39;;;;;;;1.42;1.33;;;15.70;99.90;;;;;;4844400;29;20209;-82
2022/06/01 05:20:09;;;;;;;1.52;1.38;;;15.80;99.90;;;;;;4844636;29;20260;-79
2022/06/01 05:22:38;;;;;;;1.17;1.17;;;15.80;99.90;;;;;;4844675;29;20265;-78
2022/06/01 05:25:08;;;;;;;1.15;1.10;;;15.80;99.90;;;;;;4843916;29;20221;-78
2022/06/01 05:27:36;;;;;;;1.05;1.05;;;15.90;99.90;;;;;;4842789;29;20221;-79
2022/06/01 05:30:07;;;;;;;0.82;0.82;;;15.90;99.90;;;;;;4843630;29;20312;-78
2022/06/01 05:32:36;;;;;;;1.42;1.15;;;16.00;99.90;;;;;;4843645;29;20272;-78
2022/06/01 05:35:05;;;;;;;1.13;1.10;;;16.00;99.90;;;;;;4843389;29;20217;-78
2022/06/01 05:37:33;;;;;;;1.50;1.40;;;16.10;99.90;;;;;;4843160;29;20281;-78
2022/06/01 05:40:01;;;;;;;1.02;1.02;;;16.10;99.90;;;;;;4843466;29;20245;-78
2022/06/01 05:42:30;;;;;;;2.30;1.48;;;16.20;99.90;;;;;;4842967;29;20209;-78
2022/06/01 05:44:58;;;;;;;1.65;1.08;;;16.30;99.90;;;;;;4843569;29;20240;-79
2022/06/01 05:47:28;;;;;;;1.25;1.23;;;16.30;99.90;;;;;;4842831;29;20221;-79
2022/06/01 05:49:56;;;;;;;0.95;0.95;;;16.40;99.90;;;;;;4843073;29;20244;-79
2022/06/01 05:52:24;;;;;;;0.75;0.75;;;16.40;99.90;;;;;;4842936;29;20213;-78
2022/06/01 05:54:52;;;;;;;1.33;1.20;;;16.50;99.90;;;;;;4843225;29;20213;-79
2022/06/01 05:57:20;;;;;;;1.20;1.10;;;16.50;99.90;;;;;;4843003;29;20233;-79
2022/06/01 05:59:48;;;;;;;1.13;1.05;;;16.60;99.90;;;;;;4843188;29;20229;-79
2022/06/01 06:02:17;;;;;;;1.17;1.10;;;16.60;99.90;;;;;;4843095;29;20288;-79
2022/06/01 06:04:46;;;;;;;1.48;1.02;;;16.70;99.90;;;;;;4842937;29;20305;-83
2022/06/01 06:07:15;;;;;;;1.40;1.00;;;16.70;99.90;;;;;;4843110;29;20213;-82
2022/06/01 06:09:43;;;;;;;1.23;1.13;;;16.80;99.90;;;;;;4842819;29;20297;-82
2022/06/01 06:12:11;;;;;;;1.40;1.30;;;16.90;99.90;;;;;;4842613;29;20273;-82
2022/06/01 06:14:44;;;;;;;0.82;0.82;;;17.00;99.90;;;;;;4842925;29;20217;-82
2022/06/01 06:17:13;;;;;;;1.38;1.27;;;17.00;99.90;;;;;;4842437;29;20229;-82
2022/06/01 06:19:41;;;;;;;1.00;1.00;;;17.10;99.90;;;;;;4842851;29;20248;-82
2022/06/01 06:22:11;;;;;;;1.40;1.30;;;17.20;99.90;;;;;;4842651;29;20221;-82
2022/06/01 06:24:39;;;;;;;0.80;0.80;;;17.20;99.90;;;;;;4842421;29;20276;-82
2022/06/01 06:27:07;;;;;;;1.10;1.10;;;17.30;99.90;;;;;;4842704;29;20284;-83
2022/06/01 06:29:36;;;;;;;1.50;1.40;;;17.30;99.90;;;;;;4842547;29;20240;-82
2022/06/01 06:32:04;;;;;;;1.35;1.23;;;17.50;99.90;;;;;;4842405;29;20309;-82
2022/06/01 06:34:32;;;;;;;1.00;1.00;;;17.50;99.90;;;;;;4842607;29;20217;-82
2022/06/01 06:37:00;;;;;;;2.33;1.48;;;17.60;99.90;;;;;;4842210;29;20244;-82
2022/06/01 06:39:30;;;;;;;1.05;1.05;;;17.80;99.90;;;;;;4842156;29;20247;-82
2022/06/01 06:41:58;;;;;;;0.90;0.85;;;17.80;99.90;;;;;;4841992;29;20243;-82
2022/06/01 06:44:27;;;;;;;1.77;0.80;;;17.90;99.90;;;;;;4842338;29;20237;-82
2022/06/01 06:46:55;;;;;;;0.90;0.90;;;18.00;99.90;;;;;;4842312;29;20213;-82
2022/06/01 06:49:23;;;;;;;1.23;1.13;;;18.00;99.90;;;;;;4842191;29;20237;-82
2022/06/01 06:51:52;;;;;;;1.55;1.45;;;18.10;99.90;;;;;;4842356;29;20292;-82
2022/06/01 06:54:20;;;;;;;1.42;1.33;;;18.20;99.90;;;;;;4842555;29;20221;-82
2022/06/01 06:56:56;;;;;;;2.08;1.45;;;18.30;99.90;;;;;;4842210;29;20238;-82
2022/06/01 06:59:24;;;;;;;1.30;1.30;;;18.40;99.90;;;;;;4842206;29;20316;-82
2022/06/01 07:01:52;;;;;;;1.67;1.10;;;18.50;99.90;;;;;;4841899;29;20236;-82
2022/06/01 07:04:20;;;;;;;1.50;1.20;;;18.70;99.90;;;;;;4842314;29;20289;-82
2022/06/01 07:06:49;;;;;;;1.27;1.17;;;18.80;99.90;;;;;;4842243;29;20209;-82
2022/06/01 07:09:17;;;;;;;1.35;1.30;;;18.90;99.90;;;;;;4842056;29;20261;-81
2022/06/01 07:11:45;;;;;;;1.00;1.00;;;19.20;99.90;;;;;;4841621;29;20442;-82
2022/06/01 07:14:15;;;;;;;2.38;1.65;;;19.40;99.90;;;;;;4841765;29;20300;-82
2022/06/01 07:16:43;;;;;;;1.40;1.30;;;19.60;99.90;;;;;;4842110;29;20232;-79
2022/06/01 07:19:11;;;;;;;1.80;1.20;;;19.90;99.90;;;;;;4841972;29;20237;-79
2022/06/01 07:21:41;;;;;;;1.55;1.45;;;20.40;99.90;;;;;;4841612;29;20269;-79
2022/06/01 07:24:10;;;;;;;1.20;1.10;;;21.10;99.90;;;;;;4841715;29;20291;-79
2022/06/01 07:26:41;;;;;;;1.13;1.02;;;22.00;99.90;;;;;;4841704;29;20209;-79
2022/06/01 07:29:09;;;;;;;1.42;1.33;;;22.20;99.90;;;;;;4841837;29;20261;-79
2022/06/01 07:31:39;;;;;;;1.30;1.25;;;22.70;99.90;;;;;;4841814;29;20217;-79
2022/06/01 07:34:08;;;;;;;0.90;0.90;;;23.20;99.90;;;;;;4841902;29;20213;-79
2022/06/01 07:36:36;;;;;;;1.35;1.25;;;23.60;99.90;;;;;;4841603;29;20271;-79
2022/06/01 07:44:41;;;;;;;1.20;1.20;;;25.20;99.90;;;;;;4841747;29;20221;-80
2022/06/01 07:47:12;;;;;;;1.00;1.00;;;25.40;99.90;;;;;;4841833;29;20224;-79
2022/06/01 07:50:00;;;;;;;1.42;1.33;;;25.10;99.90;;;;;;4841863;29;20233;-80
2022/06/01 07:52:48;;;;;;;1.30;1.30;;;25.70;99.90;;;;;;4845214;29;20213;-81
2022/06/01 07:55:16;;;;;;;1.50;1.40;;;26.60;99.90;;;;;;4845344;29;20247;-80
2022/06/01 07:57:44;;;;;;;1.58;1.25;;;27.00;99.90;;;;;;4845102;29;20316;-80
2022/06/01 08:00:14;;;;;;;1.10;1.10;;;27.00;99.90;;;;;;4844940;29;20237;-80
2022/06/01 08:02:44;;;;;;;1.48;1.30;;;27.00;99.60;;;;;;4845066;29;20276;-80
2022/06/01 08:05:14;;;;;;;1.10;1.10;;;27.30;98.70;;;;;;4845158;29;20311;-80
2022/06/01 08:07:44;;;;;;;0.98;0.98;;;27.00;97.10;;;;;;4845020;29;20240;-80
2022/06/01 08:10:14;;;;;;;1.40;1.30;;;26.90;98.30;;;;;;4844249;29;20233;-81
2022/06/01 08:15:32;;;;;;;1.25;1.15;;;26.60;96.30;;;;;;4844920;29;20237;-80
2022/06/01 08:18:02;;;;;;;1.85;1.00;;;26.60;96.80;;;;;;4844374;29;20254;-80
2022/06/01 08:20:31;;;;;;;1.48;1.38;;;27.10;96.80;;;;;;4844770;29;20236;-81
2022/06/01 08:23:00;;;;;;;1.30;1.20;;;27.20;95.40;;;;;;4844846;29;20243;-81
2022/06/01 08:25:30;;;;;;;1.10;1.10;;;27.20;94.10;;;;;;4844909;29;20213;-80
2022/06/01 08:27:59;;;;;;;1.20;1.10;;;26.80;94.40;;;;;;4844762;29;20214;-81
2022/06/01 08:30:29;;;;;;;1.33;1.23;;;27.10;93.40;;;;;;4844237;29;20229;-81
2022/06/01 08:32:58;;;;;;;1.30;1.20;;;27.50;93.50;;;;;;4844570;29;20308;-81
2022/06/01 08:35:31;;;;;;;1.98;1.33;;;27.10;92.20;;;;;;4844617;29;20248;-81
2022/06/01 08:38:01;;;;;;;1.15;1.15;;;25.90;93.20;;;;;;4844682;29;20229;-80
2022/06/01 08:40:32;;;;;;;1.48;1.35;;;25.70;93.10;;;;;;4844200;29;20312;-80
2022/06/01 08:43:07;;;;;;;1.05;1.05;;;25.70;93.50;;;;;;4844430;29;20296;-80
2022/06/01 08:45:36;;;;;;;2.47;1.88;;;26.00;93.50;;;;;;4844529;29;20205;-80
2022/06/01 08:48:06;;;;;;;1.80;1.38;;;26.60;93.30;;;;;;4844177;29;20288;-80
2022/06/01 08:50:39;;;;;;;1.27;1.17;;;26.90;92.10;;;;;;4844000;29;20229;-80
2022/06/01 08:53:09;;;;;;;1.13;1.13;;;27.20;91.50;;;;;;4844369;29;20221;-80
2022/06/01 08:55:48;;;;;;;1.65;1.10;;;26.80;91.30;;;;;;4844178;29;20286;-80
2022/06/01 08:58:19;;;;;;;1.08;1.08;;;26.60;92.60;;;;;;4844159;29;20237;-80
2022/06/01 09:00:55;;;;;;;2.28;1.40;;;27.20;91.40;;;;;;4843953;29;20217;-80
2022/06/01 09:03:31;;;;;;;1.33;1.20;;;27.80;90.90;;;;;;4844217;29;20223;-80
2022/06/01 09:06:11;;;;;;;1.20;1.20;;;28.00;89.70;;;;;;4844194;29;20205;-80
2022/06/01 09:08:46;;;;;;;1.60;1.33;;;28.20;88.80;;;;;;4844001;29;20224;-80
2022/06/01 09:11:18;;;;;;;1.40;1.30;;;28.50;88.70;;;;;;4843455;29;20216;-80
2022/06/01 09:13:57;;;;;;;1.38;1.27;;;28.30;90.00;;;;;;4844225;29;20377;-80
2022/06/01 09:16:30;;;;;;;1.10;1.10;;;28.00;85.90;;;;;;4844018;29;20217;-80
2022/06/01 09:18:59;;;;;;;1.55;1.40;;;28.10;86.90;;;;;;4843762;29;20237;-80
2022/06/01 09:24:21;;;;;;;1.98;1.20;;;28.70;84.40;;;;;;4843819;29;20273;-80
2022/06/01 09:26:57;;;;;;;1.60;1.40;;;28.40;85.60;;;;;;4843651;29;20301;-80
2022/06/01 09:29:28;;;;;;;0.98;0.98;;;28.40;85.20;;;;;;4843987;29;20229;-80
2022/06/01 09:32:02;;;;;;;1.45;1.35;;;27.70;85.10;;;;;;4843569;29;20245;-80
2022/06/01 09:34:38;;;;;;;1.50;1.40;;;27.40;87.70;;;;;;4843689;29;20236;-80
2022/06/01 09:37:14;;;;;;;2.40;1.40;;;27.80;85.80;;;;;;4843510;29;20220;-81
2022/06/01 09:39:51;;;;;;;1.80;1.60;;;27.90;84.50;;;;;;4842997;29;20235;-80
2022/06/01 09:42:25;;;;;;;1.52;1.20;;;28.30;84.20;;;;;;4843337;29;20303;-80
2022/06/01 09:44:57;;;;;;;1.10;1.05;;;28.10;83.80;;;;;;4843903;29;20212;-80
2022/06/01 09:47:39;;;;;;;1.65;1.55;;;28.50;84.50;;;;;;4843461;29;20213;-80
2022/06/01 09:50:22;;;;;;;2.33;1.40;;;28.40;82.30;;;;;;4843199;29;20353;-80
2022/06/01 09:52:56;;;;;;;1.23;1.15;;;28.40;81.50;;;;;;4843417;29;20213;-80
2022/06/01 09:55:27;;;;;;;1.35;1.23;;;28.50;80.00;;;;;;4843368;29;20212;-80
2022/06/01 09:58:05;;;;;;;1.63;1.52;;;29.00;83.30;;;;;;4843021;29;20228;-81
2022/06/01 10:06:22;;;;;;;1.27;1.23;;;29.00;79.10;;;;;;4842911;29;20305;-80
2022/06/01 10:09:03;;;;;;;1.48;1.38;;;29.10;79.90;;;;;;4842638;29;20287;-80
2022/06/01 10:11:35;;;;;;;1.38;1.27;;;30.00;81.50;;;;;;4842443;29;20240;-81
2022/06/01 10:14:14;;;;;;;1.50;1.05;;;29.80;75.90;;;;;;4842507;29;20236;-80
2022/06/01 10:17:09;;;;;;;1.30;1.30;;;29.60;75.30;;;;;;4843126;29;20213;-80
2022/06/01 10:19:42;;;;;;;1.38;1.27;;;29.20;77.10;;;;;;4842419;29;20233;-80
2022/06/01 10:22:18;;;;;;;1.67;1.15;;;29.50;75.70;;;;;;4842605;29;20217;-80
2022/06/01 10:24:52;;;;;;;1.10;1.10;;;29.40;75.00;;;;;;4842510;29;20221;-80
2022/06/01 10:27:25;;;;;;;2.10;1.40;;;28.80;76.90;;;;;;4842743;29;20219;-80
2022/06/01 10:30:06;;;;;;;3.40;1.25;;;28.90;78.10;;;;;;4842892;29;20308;-81
2022/06/01 10:32:42;;;;;;;1.35;1.25;;;28.20;76.80;;;;;;4842513;29;20219;-80
2022/06/01 10:35:17;;;;;;;1.45;1.35;;;28.20;79.30;;;;;;4842495;29;20332;-80
2022/06/01 10:38:00;;;;;;;1.70;1.27;;;28.70;77.30;;;;;;4842584;29;20243;-80
2022/06/01 10:40:40;;;;;;;1.15;1.05;;;28.80;75.20;;;;;;4842039;29;20294;-81
2022/06/01 10:43:17;;;;;;;1.02;1.02;;;28.70;74.50;;;;;;4842573;29;20278;-80
2022/06/01 10:45:51;;;;;;;1.60;1.50;;;28.90;74.70;;;;;;4842630;29;20243;-80
2022/06/01 10:48:28;;;;;;;3.35;1.15;;;28.80;75.20;;;;;;4842493;29;20209;-80
2022/06/01 10:51:06;;;;;;;1.20;1.10;;;28.80;73.90;;;;;;4842236;29;20296;-80
2022/06/01 10:53:57;;;;;;;0.93;0.93;;;29.20;74.50;;;;;;4842625;29;20221;-80
2022/06/01 10:56:28;;;;;;;1.10;1.10;;;29.40;73.30;;;;;;4842378;29;20217;-81
2022/06/01 10:58:59;;;;;;;2.38;1.67;;;29.20;71.90;;;;;;4842239;29;20244;-81
2022/06/01 11:01:46;;;;;;;1.55;1.45;;;29.00;72.70;;;;;;4842133;29;20247;-80
2022/06/01 11:04:45;;;;;;;1.98;1.67;;;28.90;72.00;;;;;;4842468;29;20221;-80
2022/06/01 11:07:42;;;;;;;1.65;1.10;;;29.50;72.30;;;;;;4839071;29;20300;-80
2022/06/01 11:10:19;;;;;;;1.40;1.23;;;30.40;68.80;;;;;;4841478;29;20331;-80
2022/06/01 11:12:59;;;;;;;1.48;1.30;;;30.40;68.30;;;;;;4842166;29;20223;-81
2022/06/01 11:15:42;;;;;;;1.10;1.10;;;30.40;66.80;;;;;;4842149;29;20208;-80
2022/06/01 11:18:21;;;;;;;2.20;1.48;;;30.50;67.60;;;;;;4841940;29;20304;-81
2022/06/01 11:21:02;;;;;;;2.63;1.40;;;30.90;69.80;;;;;;4842021;29;20220;-78
2022/06/01 11:23:44;;;;;;;0.88;0.88;;;31.30;66.10;;;;;;4842057;29;20221;-78
2022/06/01 11:26:27;;;;;;;1.30;1.20;;;31.00;65.70;;;;;;4844318;29;20251;-78
2022/06/01 11:29:13;;;;;;;1.52;1.38;;;30.40;65.20;;;;;;4845575;29;20255;-78
2022/06/01 11:31:44;;;;;;;10.00;1.98;;;29.70;65.40;;;;;;4845526;29;20300;-78
2022/06/01 11:34:16;;;;;;;1.25;1.20;;;30.10;61.70;;;;;;4845510;29;20291;-78
2022/06/01 11:36:50;;;;;;;1.23;1.20;;;29.70;65.20;;;;;;4845672;29;20272;-81
2022/06/01 11:39:27;;;;;;;1.48;1.38;;;29.60;65.00;;;;;;4845437;29;20237;-81
2022/06/01 11:42:05;;;;;;;1.48;1.38;;;29.50;65.60;;;;;;4845928;29;20205;-81
2022/06/01 11:44:38;;;;;;;1.40;1.30;;;30.20;62.00;;;;;;4845627;29;20268;-81
2022/06/01 11:47:13;;;;;;;1.30;1.20;;;30.50;60.50;;;;;;4845335;29;20240;-81
2022/06/01 11:49:43;;;;;;;1.10;1.00;;;30.50;55.50;;;;;;4845283;29;20320;-81
2022/06/01 11:52:30;;;;;;;1.02;1.02;;;31.00;57.40;;;;;;4845216;29;20213;-81
2022/06/01 11:55:38;;;;;;;1.30;1.17;;;30.90;58.20;;;;;;4845726;29;20296;-81
2022/06/01 11:58:08;;;;;;;1.25;1.17;;;30.40;57.90;;;;;;4823144;29;20213;-81
2022/06/01 12:00:44;;;;;;;1.52;1.42;;;30.20;53.90;;;;;;4844727;29;20320;-81
2022/06/01 12:03:39;;;;;;;1.02;0.98;;;30.00;54.80;;;;;;4845156;29;20299;-81
2022/06/01 12:06:11;;;;;;;1.10;1.00;;;29.60;54.70;;;;;;4845122;29;20257;-81
2022/06/01 12:08:45;;;;;;;1.67;1.13;;;29.20;55.80;;;;;;4845363;29;20233;-81
2022/06/01 12:11:35;;;;;;;1.65;1.55;;;29.50;55.60;;;;;;4844415;29;20251;-81
2022/06/01 12:14:19;;;;;;;1.50;1.40;;;29.80;54.00;;;;;;4844748;29;20216;-79
2022/06/01 12:17:24;;;;;;;1.23;1.13;;;30.00;54.10;;;;;;4845257;29;20408;-79
2022/06/01 12:20:14;;;;;;;1.50;1.30;;;30.30;52.40;;;;;;4844636;29;20237;-79
2022/06/01 12:28:46;;;;;;;1.52;1.30;;;30.30;50.90;;;;;;4845021;29;20256;-79
2022/06/01 12:31:17;;;;;;;1.25;1.15;;;30.40;51.50;;;;;;4844666;29;20259;-79
2022/06/01 12:34:08;;;;;;;1.67;1.33;;;30.50;52.30;;;;;;4844784;29;20213;-79
2022/06/01 12:36:43;;;;;;;1.30;1.20;;;29.90;49.50;;;;;;4844235;29;20300;-78
2022/06/01 12:39:16;;;;;;;3.03;1.48;;;29.40;53.40;;;;;;4844304;29;20244;-79
2022/06/01 12:41:49;;;;;;;1.60;1.50;;;29.30;51.00;;;;;;4844556;29;20241;-79
2022/06/01 12:44:19;;;;;;;1.20;1.10;;;29.10;49.70;;;;;;4844510;29;20217;-78
2022/06/01 12:46:51;;;;;;;2.60;1.25;;;29.40;51.80;;;;;;4844467;29;20268;-79
2022/06/01 12:49:30;;;;;;;1.42;1.33;;;29.60;50.40;;;;;;4844288;29;20316;-78
2022/06/01 12:52:03;;;;;;;0.95;0.95;;;30.00;50.90;;;;;;4844646;29;20328;-79
2022/06/01 12:54:34;;;;;;;1.00;1.00;;;29.80;48.90;;;;;;4844133;29;20236;-79
2022/06/01 12:57:04;;;;;;;1.13;1.00;;;29.20;50.00;;;;;;4844317;29;20343;-79
2022/06/01 12:59:35;;;;;;;1.38;1.27;;;29.30;51.70;;;;;;4843917;29;20245;-79
2022/06/01 13:02:10;;;;;;;1.40;1.30;;;29.30;49.90;;;;;;4843929;29;20217;-79
2022/06/01 13:04:50;;;;;;;1.17;1.17;;;29.20;51.30;;;;;;4844582;29;20212;-79
2022/06/01 13:07:20;;;;;;;1.30;1.20;;;28.70;51.60;;;;;;4844172;29;20232;-79
2022/06/01 13:09:59;;;;;;;1.15;1.15;;;28.50;52.20;;;;;;4843884;29;20272;-79
2022/06/01 13:12:30;;;;;;;1.55;1.20;;;28.50;52.30;;;;;;4843944;29;20221;-79
2022/06/01 13:15:11;;;;;;;1.83;1.60;;;28.70;52.90;;;;;;4843814;29;20301;-78
2022/06/01 13:17:51;;;;;;;1.27;1.17;;;28.50;51.90;;;;;;4844113;29;20213;-78
2022/06/01 13:20:25;;;;;;;1.33;1.10;;;28.00;52.80;;;;;;4843320;29;20319;-78
2022/06/01 13:22:54;;;;;;;1.80;1.52;;;27.70;53.30;;;;;;4843925;29;20221;-81
2022/06/01 13:25:26;;;;;;;1.55;1.45;;;27.50;53.30;;;;;;4843584;29;20227;-81
2022/06/01 13:27:55;;;;;;;1.85;1.38;;;27.70;54.40;;;;;;4843867;29;20209;-81
2022/06/01 13:30:24;;;;;;;1.40;1.30;;;27.50;54.80;;;;;;4843534;29;20237;-81
2022/06/01 13:32:52;;;;;;;1.60;1.50;;;27.40;54.30;;;;;;4843837;29;20277;-81
2022/06/01 13:35:33;;;;;;;1.23;1.15;;;27.40;54.40;;;;;;4843588;29;20303;-81
2022/06/01 13:38:15;;;;;;;4.25;1.50;;;27.70;55.00;;;;;;4843539;29;20220;-78
2022/06/01 13:40:52;;;;;;;1.02;1.02;;;27.80;54.00;;;;;;4842957;29;20236;-78
2022/06/01 13:43:21;;;;;;;1.35;1.25;;;27.60;54.80;;;;;;4843374;29;20245;-78
2022/06/01 13:45:54;;;;;;;1.33;1.33;;;27.80;54.70;;;;;;4843675;29;20231;-78
2022/06/01 13:48:32;;;;;;;4.80;1.38;;;28.00;54.20;;;;;;4842699;29;20243;-78
2022/06/01 13:51:04;;;;;;;1.27;1.17;;;27.60;54.50;;;;;;4842990;29;20212;-79
2022/06/01 13:53:35;;;;;;;2.58;1.30;;;27.20;55.40;;;;;;4843408;29;20296;-79
2022/06/01 13:56:08;;;;;;;1.15;1.05;;;27.10;55.10;;;;;;4842969;29;20262;-78
2022/06/01 13:58:41;;;;;;;1.42;1.42;;;26.70;55.60;;;;;;4843172;29;20237;-78
2022/06/01 14:01:13;;;;;;;1.48;1.38;;;26.30;56.80;;;;;;4842829;29;20289;-78
2022/06/01 14:03:45;;;;;;;1.75;1.40;;;26.20;58.10;;;;;;4843560;29;20213;-79
2022/06/01 14:06:15;;;;;;;1.80;1.70;;;26.20;57.20;;;;;;4842703;29;20217;-78
2022/06/01 14:08:50;;;;;;;1.55;1.45;;;26.20;57.50;;;;;;4843090;29;20320;-78
2022/06/01 14:11:24;;;;;;;1.30;1.20;;;26.20;57.50;;;;;;4842601;29;20209;-78
2022/06/01 14:13:53;;;;;;;2.35;1.60;;;26.30;57.20;;;;;;4843493;29;20244;-78
2022/06/01 14:16:23;;;;;;;1.98;1.88;;;26.20;57.20;;;;;;4842698;29;20325;-78
2022/06/01 14:18:54;;;;;;;1.60;1.50;;;26.30;57.60;;;;;;4842904;29;20232;-78
2022/06/01 14:21:24;;;;;;;1.75;1.60;;;26.40;57.20;;;;;;4842370;29;20229;-79
2022/06/01 14:23:53;;;;;;;1.20;1.20;;;26.40;57.50;;;;;;4842572;29;20236;-78
2022/06/01 14:29:08;;;;;;;1.42;1.33;;;26.80;56.70;;;;;;4842666;29;20240;-78
2022/06/01 14:31:39;;;;;;;1.50;1.40;;;26.80;56.50;;;;;;4842468;29;20292;-78
2022/06/01 14:34:09;;;;;;;1.48;1.38;;;26.50;57.30;;;;;;4842584;29;20217;-78
2022/06/01 14:36:40;;;;;;;1.30;1.30;;;26.30;57.40;;;;;;4842403;29;20289;-78
2022/06/01 14:39:09;;;;;;;1.25;1.25;;;26.10;57.10;;;;;;4842392;29;20241;-78
2022/06/01 14:41:39;;;;;;;1.02;1.02;;;26.10;58.10;;;;;;4842272;29;20241;-78
2022/06/01 14:44:12;;;;;;;1.38;1.30;;;26.00;58.30;;;;;;4842457;29;20304;-81
2022/06/01 14:46:40;;;;;;;1.65;1.55;;;26.00;57.90;;;;;;4842219;29;20281;-81
2022/06/01 14:49:09;;;;;;;1.00;1.00;;;26.10;58.70;;;;;;4841990;29;20237;-81
2022/06/01 14:51:41;;;;;;;0.95;0.95;;;26.30;58.20;;;;;;4841931;29;20240;-81
2022/06/01 14:54:11;;;;;;;1.35;1.25;;;26.30;58.10;;;;;;4842592;29;20245;-81
2022/06/01 14:56:39;;;;;;;1.10;1.10;;;26.40;59.60;;;;;;4842205;29;20301;-81
2022/06/01 14:59:08;;;;;;;1.60;1.50;;;26.50;58.60;;;;;;4842082;29;20235;-81
2022/06/01 15:01:41;;;;;;;1.38;1.27;;;26.50;58.60;;;;;;4841697;29;20231;-81
2022/06/01 15:04:13;;;;;;;1.63;1.50;;;26.60;58.20;;;;;;4842044;29;20213;-80
2022/06/01 15:06:43;;;;;;;1.55;1.45;;;26.50;58.70;;;;;;4842266;29;20248;-81
2022/06/01 15:09:12;;;;;;;1.65;1.55;;;26.50;58.10;;;;;;4842323;29;20233;-81
2022/06/01 15:11:42;;;;;;;2.40;1.35;;;26.70;58.40;;;;;;4841528;29;20224;-81
2022/06/01 15:14:10;;;;;;;6.18;1.63;;;26.70;58.20;;;;;;4841849;29;20292;-81
2022/06/01 15:16:39;;;;;;;7.60;2.08;;;26.90;58.40;;;;;;4842211;29;20293;-80
2022/06/01 15:19:08;;;;;;;2.13;1.33;;;27.10;58.60;;;;;;4841829;29;20225;-81
2022/06/01 15:21:39;;;;;;;1.60;1.50;;;27.10;57.40;;;;;;4841776;29;20312;-81
2022/06/01 15:24:09;;;;;;;1.70;1.60;;;27.00;57.70;;;;;;4841974;29;20217;-81
2022/06/01 15:26:39;;;;;;;2.50;1.80;;;26.90;57.90;;;;;;4842969;29;20327;-86
2022/06/01 15:40:11;;;;;;;1.35;1.25;;;26.40;59.70;;;;;;4859920;29;20320;-82
2022/06/01 15:42:39;;;;;;;1.70;1.60;;;26.40;60.00;;;;;;4859779;29;20236;-82
2022/06/01 15:45:08;;;;;;;1.88;1.77;;;26.30;59.90;;;;;;4859911;29;20291;-82
2022/06/01 15:47:37;;;;;;;6.68;2.08;;;26.20;59.30;;;;;;4860350;29;20303;-82
2022/06/01 15:50:08;;;;;;;1.50;1.40;;;26.10;60.00;;;;;;4859945;29;20300;-86
2022/06/01 15:52:36;;;;;;;1.38;1.25;;;26.10;60.10;;;;;;4860137;29;20304;-85
2022/06/01 15:55:05;;;;;;;2.28;1.38;;;26.10;60.80;;;;;;4859848;29;20209;-82
2022/06/01 15:57:35;;;;;;;1.42;1.33;;;26.10;59.70;;;;;;4859984;29;20284;-82
2022/06/01 16:00:05;;;;;;;1.20;1.20;;;26.10;60.20;;;;;;4860454;29;20243;-82
2022/06/01 16:02:33;;;;;;;1.13;1.13;;;26.20;62.00;;;;;;4860048;29;20228;-82
2022/06/01 16:05:02;;;;;;;2.33;1.60;;;26.30;61.60;;;;;;4860038;29;20213;-83
2022/06/01 16:07:30;;;;;;;1.55;1.40;;;26.20;60.50;;;;;;4860136;29;20240;-82
2022/06/01 16:09:58;;;;;;;1.60;1.50;;;26.30;63.20;;;;;;4859700;29;20304;-82
2022/06/01 16:12:26;;;;;;;1.95;1.80;;;26.20;63.70;;;;;;4861937;29;20220;-83
2022/06/01 16:14:56;;;;;;;5.55;1.58;;;26.10;63.20;;;;;;4863342;29;20295;-83
2022/06/01 16:17:28;;;;;;;1.90;1.80;;;26.10;64.90;;;;;;4863630;29;20291;-82
2022/06/01 16:20:06;;;;;;;1.52;1.42;;;26.10;65.00;;;;;;4863513;29;20239;-82
2022/06/01 16:22:34;;;;;;;2.08;1.83;;;25.90;64.70;;;;;;4863186;29;20232;-82
2022/06/01 16:25:03;;;;;;;1.00;1.00;;;25.80;65.30;;;;;;4863391;29;20272;-82
2022/06/01 16:27:31;;;;;;;1.73;1.50;;;25.70;65.70;;;;;;4863596;29;20208;-82
2022/06/01 16:30:02;;;;;;;1.60;1.50;;;25.60;66.00;;;;;;4863270;29;20229;-83
2022/06/01 16:32:35;;;;;;;1.88;1.67;;;25.50;66.10;;;;;;4863167;29;20208;-82
2022/06/01 16:35:07;;;;;;;1.85;1.52;;;25.50;66.50;;;;;;4862961;29;20208;-82
2022/06/01 16:37:37;;;;;;;2.00;1.65;;;25.50;67.10;;;;;;4863429;29;20239;-82
2022/06/01 16:40:09;;;;;;;1.30;1.27;;;25.50;67.00;;;;;;4862865;29;20240;-82
2022/06/01 16:42:39;;;;;;;1.55;1.45;;;25.40;67.50;;;;;;4862850;29;20324;-83
2022/06/01 16:45:13;;;;;;;1.60;1.50;;;25.20;68.60;;;;;;4863055;29;20208;-82
2022/06/01 16:47:41;;;;;;;1.60;1.50;;;25.20;69.70;;;;;;4862944;29;20296;-82
2022/06/01 16:50:09;;;;;;;1.25;1.15;;;25.00;70.20;;;;;;4862134;29;20284;-82
2022/06/01 16:52:37;;;;;;;1.30;1.30;;;25.10;70.60;;;;;;4862792;29;20205;-82